ADDS METAR Data INFO
IDs: Format: Raw Decoded Include TAF

Data at: 1717 UTC 23 Oct 2017

KTUP 231653Z 28005KT 10SM SCT017 BKN025 OVC031 15/11 A3001 RMK AO2 SLP161 T01500106
KTUP 231553Z 28009G16KT 230V310 10SM OVC020 14/10 A3000 RMK AO2 SLP157 T01440100
KTUP 231453Z VRB06G15KT 10SM OVC023 15/09 A2998 RMK AO2 SLP148 T01500094 50010
KTUP 231446Z 26008KT 220V290 10SM BKN023 14/09 A2998 RMK AO2 T01440094
KTUP 231419Z 26008G16KT 10SM SCT016 SCT025 14/10 A2998 RMK AO2 T01440100
KTUP 231405Z 27007KT 10SM SCT015 BKN019 BKN026 14/11 A2998 RMK AO2 T01390106
KTUP 231353Z VRB05KT 10SM SCT012 SCT016 SCT120 14/11 A2998 RMK AO2 SLP150 T01440111
KTUP 231346Z 25006KT 10SM SCT010 SCT033 14/11 A2998 RMK AO2 T01390111
KTUP 231334Z VRB05KT 10SM BKN010 BKN016 BKN033 13/11 A2998 RMK AO2 T01330111
KTUP 231327Z VRB05KT 10SM SCT010 BKN020 OVC033 13/11 A2997 RMK AO2 T01330111
KTUP 231253Z 25006KT 9SM SCT011 BKN014 OVC027 13/11 A2996 RMK AO2 SLP142 T01330111
KTUP 231236Z VRB05KT 10SM BKN011 BKN025 OVC029 13/12 A2996 RMK AO2 T01330117
KTUP 231212Z 27005KT 10SM BKN008 BKN018 OVC027 13/12 A2995 RMK AO2 T01330117
KTUP 231153Z 28005KT 10SM BKN010 OVC026 14/12 A2995 RMK AO2 SLP138 60001 70024 T01390117 10172 20139 53005
KTUP 231131Z VRB06KT 10SM BKN008 OVC011 14/12 A2994 RMK AO2 CIG 007V010 T01390122
KTUP 231108Z 25007KT 10SM BKN010 BKN015 14/12 A2994 RMK AO2 T01390122
KTUP 231053Z 25005KT 10SM FEW010 SCT022 BKN028 14/12 A2994 RMK AO2 SLP136 T01390122
KTUP 230953Z AUTO 26004KT 10SM SCT009 OVC018 14/13 A2993 RMK AO2 RAB00E15 SLP133 P0001 T01440128
KTUP 230925Z AUTO 27005KT 10SM SCT009 OVC017 15/13 A2993 RMK AO2 RAB00E15 P0001 T01500133
KTUP 230908Z AUTO 27004KT 4SM -RA BR BKN010 OVC016 15/13 A2993 RMK AO2 RAB00 P0001 T01500133
KTUP 230900Z AUTO VRB04KT 4SM -RA BR SCT009 OVC016 15/13 A2993 RMK AO2 RAB00 P0000 T01500133
KTUP 230853Z AUTO VRB05KT 6SM BR BKN010 OVC018 15/13 A2993 RMK AO2 SLP132 T01500133 55004
KTUP 230753Z AUTO 26005KT 10SM FEW007 SCT011 OVC019 16/14 A2993 RMK AO2 SLP131 T01610139
KTUP 230748Z AUTO 26007KT 10SM FEW009 SCT014 OVC021 16/14 A2993 RMK AO2
KTUP 230732Z AUTO 22005KT 10SM FEW007 BKN010 OVC022 17/14 A2993 RMK AO2 T01670144
KTUP 230726Z AUTO 24004KT 10SM SCT012 BKN020 OVC025 17/14 A2993 RMK AO2 T01670144
KTUP 230653Z AUTO 22003KT 10SM BKN014 BKN020 OVC025 17/15 A2994 RMK AO2 SLP136 T01670150
KTUP 230632Z AUTO VRB03KT 10SM SCT010 OVC016 17/15 A2994 RMK AO2 T01720150
KTUP 230553Z AUTO VRB03KT 10SM OVC009 17/15 A2994 RMK AO2 CIG 007V011 SLP137 60014 T01720150 10206 20172 402440172 56008
KTUP 230549Z AUTO VRB04KT 10SM OVC009 17/15 A2994 RMK AO2 CIG 007V013
KTUP 230517Z AUTO VRB04KT 10SM BKN010 OVC050 17/16 A2994 RMK AO2 T01720156
KTUP 230504Z AUTO 25005KT 10SM BKN008 BKN038 OVC050 17/16 A2994 RMK AO2 T01720156
KTUP 230453Z AUTO 27004KT 10SM BKN037 OVC048 17/16 A2994 RMK AO2 SLP135 T01720156
KTUP 230353Z AUTO VRB03KT 10SM FEW012 OVC034 17/16 A2997 RMK AO2 RAE10 SLP145 P0000 T01720156
KTUP 230346Z AUTO VRB03KT 10SM FEW012 OVC032 17/16 A2997 RMK AO2 RAE10 P0000 T01720156
KTUP 230338Z AUTO 28005KT 10SM FEW008 BKN014 OVC032 17/16 A2997 RMK AO2 RAE10 P0000 T01720156
KTUP 230308Z AUTO VRB06KT 10SM -RA BKN009 BKN014 OVC033 18/16 A2997 RMK AO2 P0000 T01780161
KTUP 230253Z 26004KT 7SM -RA SCT009 BKN026 OVC033 18/16 A2997 RMK AO2 RAB24 SLP146 P0005 60014 T01780161 53003
KTUP 230246Z 26004KT 6SM -RA BR SCT009 BKN017 OVC032 18/16 A2998 RMK AO2 RAB24 P0005 T01780161
KTUP 230221Z 24006KT 10SM BKN008 OVC013 19/18 A2997 RMK AO2 CIG 005V011 T01940178
KTUP 230211Z 19005KT 10SM BKN010 OVC020 20/18 A2996 RMK AO2 CIG 008V014 T02000183
KTUP 230153Z 19004KT 10SM SCT010 OVC020 20/18 A2997 RMK AO2 RAE52 SLP145 P0004 T02000183
KTUP 230130Z 17004KT 10SM -RA SCT012 BKN024 BKN120 20/18 A2996 RMK AO2 P0003 T02000183
KTUP 230053Z 11009KT 9SM -RA FEW055 BKN090 OVC110 21/19 A2996 RMK AO2 RAB2358 SLP142 P0005 T02060189
KTUP 222353Z 16006KT 10SM OVC049 21/19 A2997 RMK AO2 RAE33 SLP144 P0004 60005 T02060189 10244 20206 56009
KTUP 222253Z 14011KT 10SM -RA FEW026 OVC070 22/18 A2997 RMK AO2 RAB40 SLP145 P0000 T02170178
KTUP 222153Z 13009KT 10SM FEW041 FEW075 BKN110 23/18 A2997 RMK AO2 SLP145 T02330178
KTUP 222053Z 14012G17KT 10SM FEW021 BKN047 BKN120 24/18 A2999 RMK AO2 SLP152 60001 T02390183 56020
KTUP 221953Z 14008KT 10SM FEW013 23/19 A2999 RMK AO2 SLP153 T02280189
KTUP 221853Z 13007KT 10SM FEW015 SCT035 BKN070 22/19 A3002 RMK AO2 RAB36E45 SLP161 P0001 T02220194
KTUP 221826Z 13008KT 10SM SCT018 BKN090 22/19 A3003 RMK AO2 P0001 T02220189
KTUP 221753Z 14008KT 10SM OVC017 22/19 A3005 RMK AO2 RAB18E48 SLP173 P0004 60004 T02170189 10233 20194 58005
KTUP 221653Z 13009G16KT 10SM OVC019 23/18 A3006 RMK AO2 RAB01E26 SLP177 P0000 T02280178
KTUP 221553Z 13012G18KT 10SM BKN023 OVC043 23/17 A3007 RMK AO2 SLP179 T02280172
KTUP 221453Z 14011G18KT 10SM SCT022 BKN050 23/17 A3007 RMK AO2 SLP177 60000 T02330167 55002
KTUP 221353Z 13015G20KT 10SM FEW110 22/16 A3006 RMK AO2 SLP174 T02170161
KTUP 221253Z 12011G20KT 10SM CLR 20/16 A3007 RMK AO2 RAE1159 SLP180 P0000 T02000156
KTUP 221153Z 12009KT 10SM -RA FEW027 SCT110 19/16 A3007 RMK AO2 RAB44 SLP180 P0001 60001 70001 T01940156 10211 20194 50004
KTUP 221053Z 11008KT 10SM CLR 19/16 A3007 RMK AO2 SLP180 T01940156
KTUP 220953Z AUTO 11008KT 10SM CLR 20/16 A3007 RMK AO2 SLP178 T02000156
KTUP 220853Z AUTO 13007KT 10SM CLR 20/16 A3006 RMK AO2 SLP175 T02000161 56011
KTUP 220753Z AUTO 12010KT 10SM BKN037 21/16 A3007 RMK AO2 SLP178 T02060161
KTUP 220653Z AUTO 13011G16KT 10SM CLR 21/16 A3008 RMK AO2 SLP184 T02110161
KTUP 220553Z AUTO 12011KT 10SM FEW040 21/16 A3009 RMK AO2 SLP187 T02110161 10228 20211 402670111 58013